createdAt,value
2022-09-28T03:50:56.254Z,99146.97
2022-09-28T03:54:49.106Z,99146.13
2022-09-28T04:02:11.024Z,99156.44
2022-09-28T04:05:13.949Z,99151.50
2022-09-28T04:08:16.575Z,99147.56
2022-09-28T04:11:21.388Z,99157.50
2022-09-28T04:14:24.688Z,99157.72
2022-09-28T04:17:28.102Z,99156.25
2022-09-28T04:20:33.273Z,99156.25
2022-09-28T04:23:38.384Z,99148.81
2022-09-28T04:26:40.935Z,99154.81
2022-09-28T04:29:44.374Z,99151.28
2022-09-28T04:32:49.413Z,99148.37
2022-09-28T04:36:19.828Z,99150.47
2022-09-28T04:39:24.167Z,99153.16
2022-09-28T04:42:28.099Z,99153.56
2022-09-28T04:45:30.990Z,99149.19
2022-09-28T04:48:34.607Z,99149.00
2022-09-28T04:51:37.392Z,99151.03
2022-09-28T04:54:40.093Z,99151.03
2022-09-28T04:57:43.099Z,99145.84
2022-09-28T05:00:45.903Z,99147.06
2022-09-28T05:03:51.137Z,99150.97
2022-09-28T05:06:54.508Z,99151.34
2022-09-28T05:09:57.427Z,99151.97
2022-09-28T05:13:02.276Z,99158.56
2022-09-28T05:16:05.711Z,99162.66
2022-09-28T05:19:11.645Z,99166.38
2022-09-28T05:22:15.163Z,99164.72
2022-09-28T05:25:18.264Z,99168.84
2022-09-28T05:28:28.151Z,99165.56
2022-09-28T05:31:32.452Z,99166.94
2022-09-28T05:34:36.918Z,99161.97
2022-09-28T05:37:41.228Z,99160.34
2022-09-28T05:40:44.097Z,99162.50
2022-09-28T05:43:46.646Z,99166.09
2022-09-28T05:46:49.552Z,99167.59
2022-09-28T05:49:53.431Z,99169.53
2022-09-28T05:53:01.940Z,99166.69
2022-09-28T05:56:04.532Z,99164.47
2022-09-28T05:59:07.642Z,99168.44
2022-09-28T06:02:10.764Z,99160.97
2022-09-28T06:05:13.771Z,99159.31
2022-09-28T06:08:16.328Z,99154.78
2022-09-28T06:11:19.664Z,99141.53
2022-09-28T06:14:23.723Z,99144.22
2022-09-28T06:18:11.776Z,99142.75
2022-09-28T06:25:40.974Z,99142.69
2022-09-28T06:28:48.625Z,99151.75
2022-09-28T06:31:52.203Z,99146.75
2022-09-28T06:35:18.864Z,99159.56
2022-09-28T06:43:00.992Z,99152.53
2022-09-28T06:46:04.614Z,99152.06
2022-09-28T06:49:32.974Z,99152.19
2022-09-28T06:52:41.579Z,99158.72
2022-09-28T06:55:49.027Z,99163.00
2022-09-28T06:58:52.772Z,99171.00
2022-09-28T07:01:55.495Z,99167.59
2022-09-28T07:04:59.089Z,99165.22
2022-09-28T07:08:04.243Z,99170.00
2022-09-28T07:11:11.183Z,99161.31
2022-09-28T07:21:30.451Z,99163.28
2022-09-28T07:24:34.854Z,99158.44
2022-09-28T07:27:44.312Z,99152.09
2022-09-28T07:30:47.661Z,99153.34
2022-09-28T07:33:51.362Z,99147.44
2022-09-28T07:36:58.149Z,99158.88
2022-09-28T07:40:19.891Z,99145.97
2022-09-28T07:43:22.873Z,99155.09
2022-09-28T07:46:25.550Z,99162.59
2022-09-28T07:49:30.650Z,99144.56
2022-09-28T07:52:45.810Z,99148.53
2022-09-28T08:00:22.987Z,99162.41
2022-09-28T08:03:47.203Z,99161.13
2022-09-28T08:06:49.818Z,99158.91
2022-09-28T08:09:53.937Z,99159.25
2022-09-28T08:13:04.742Z,99164.81
2022-09-28T08:16:09.784Z,99158.91
2022-09-28T08:19:12.797Z,99161.44
2022-09-28T08:30:13.806Z,99145.22
2022-09-28T08:33:20.375Z,99133.13
2022-09-28T08:36:34.453Z,99130.16
2022-09-28T08:40:14.898Z,99120.97
2022-09-28T08:43:56.993Z,99121.25
2022-09-28T08:47:05.245Z,99120.59
2022-09-28T08:50:15.312Z,99132.78
2022-09-28T08:53:31.443Z,99131.59
2022-09-28T08:56:37.160Z,99138.50
2022-09-28T08:59:45.666Z,99140.16
2022-09-28T09:02:51.798Z,99146.25
2022-09-28T09:06:30.720Z,99133.06
2022-09-28T09:09:42.221Z,99126.63
2022-09-28T09:13:04.252Z,99125.50
2022-09-28T09:16:27.300Z,99129.38
2022-09-28T09:19:37.850Z,99129.94
2022-09-28T09:22:47.952Z,99122.13
2022-09-28T09:26:03.611Z,99123.53
2022-09-28T09:29:13.706Z,99129.44
2022-09-28T09:32:35.701Z,99131.75
2022-09-28T09:36:16.264Z,99129.44
2022-09-28T09:39:42.267Z,99116.09
2022-09-28T09:43:07.347Z,99121.81
2022-09-28T09:46:28.597Z,99124.34
2022-09-28T09:49:45.611Z,99114.78
2022-09-28T09:53:00.588Z,99119.00
2022-09-28T09:56:15.258Z,99116.97
2022-09-28T09:59:28.934Z,99125.69
2022-09-28T10:02:34.980Z,99128.28
2022-09-28T10:05:40.703Z,99122.03
2022-09-28T10:08:49.351Z,99129.91
2022-09-28T10:11:54.735Z,99129.88
2022-09-28T10:14:57.365Z,99126.41
2022-09-28T10:18:09.567Z,99129.12
2022-09-28T10:21:37.518Z,99131.34
2022-09-28T10:24:47.271Z,99128.56
2022-09-28T10:27:52.566Z,99132.66
2022-09-28T10:30:55.707Z,99129.22
2022-09-28T10:33:58.361Z,99131.78
2022-09-28T10:37:04.238Z,99124.37
2022-09-28T10:40:30.875Z,99127.66
2022-09-28T10:47:45.539Z,99121.81
2022-09-28T10:51:04.703Z,99124.41
2022-09-28T10:54:22.023Z,99126.16
2022-09-28T10:57:35.356Z,99123.16
2022-09-28T11:00:43.550Z,99120.78
2022-09-28T11:04:00.198Z,99114.34
2022-09-28T11:07:02.799Z,99115.34
2022-09-28T11:10:10.115Z,99102.44
2022-09-28T11:13:12.663Z,99109.81
2022-09-28T11:16:39.970Z,99110.25
2022-09-28T11:19:43.781Z,99099.78
2022-09-28T11:22:49.885Z,99099.88
2022-09-28T11:26:01.791Z,99090.88
2022-09-28T11:29:05.879Z,99084.34
2022-09-28T11:32:15.913Z,99083.88
2022-09-28T11:35:29.333Z,99077.41
2022-09-28T11:38:40.281Z,99076.38
2022-09-28T11:42:11.008Z,99081.88
2022-09-28T11:45:43.475Z,99077.00
2022-09-28T11:48:51.566Z,99082.47
2022-09-28T11:51:59.891Z,99087.31
2022-09-28T11:55:12.062Z,99070.19
2022-09-28T11:58:27.500Z,99075.00
2022-09-28T12:01:46.045Z,99069.78
2022-09-28T12:04:59.137Z,99067.56
2022-09-28T12:08:13.628Z,99062.50
2022-09-28T12:11:25.248Z,99055.41
2022-09-28T12:14:34.704Z,99046.38
2022-09-28T12:17:48.755Z,99035.25
2022-09-28T12:21:07.780Z,99031.47
2022-09-28T12:24:19.779Z,99032.03
2022-09-28T12:27:25.337Z,99028.25
2022-09-28T12:30:33.203Z,99035.78
2022-09-28T12:33:37.509Z,99024.19
2022-09-28T12:37:13.212Z,99026.56
2022-09-28T12:40:47.902Z,99013.31
2022-09-28T12:44:00.785Z,99009.28
2022-09-28T12:47:24.898Z,98997.66
2022-09-28T12:50:47.490Z,99002.91
2022-09-28T12:54:08.002Z,99000.25
2022-09-28T12:57:42.130Z,98998.12
2022-09-28T13:01:18.185Z,99004.19
2022-09-28T13:04:46.128Z,99003.28
2022-09-28T13:08:02.129Z,99000.53
2022-09-28T13:11:32.059Z,99012.00
2022-09-28T13:14:53.179Z,99014.84
2022-09-28T13:18:22.228Z,98996.00
2022-09-28T13:21:49.950Z,98997.84
2022-09-28T13:24:57.779Z,98996.13
2022-09-28T13:28:03.685Z,98998.34
2022-09-28T13:31:07.999Z,98998.47
2022-09-28T13:34:19.422Z,99009.66
2022-09-28T13:37:24.780Z,99002.25
2022-09-28T13:41:06.068Z,99000.78
2022-09-28T13:44:12.438Z,98995.72
2022-09-28T13:47:50.372Z,98999.72
2022-09-28T13:51:15.478Z,98996.31
2022-09-28T13:54:50.351Z,98988.13
2022-09-28T13:58:06.646Z,98990.28
2022-09-28T14:01:16.096Z,98992.06
2022-09-28T14:04:24.487Z,99008.25
2022-09-28T14:07:59.057Z,99000.84
2022-09-28T14:11:40.206Z,98988.56
2022-09-28T14:14:52.748Z,98990.34
2022-09-28T14:18:23.816Z,98994.97
2022-09-28T14:21:51.273Z,99000.44
2022-09-28T14:25:13.660Z,98994.31
2022-09-28T14:28:32.075Z,98989.47
2022-09-28T14:31:42.774Z,98986.59
2022-09-28T14:34:48.063Z,98992.28
2022-09-28T14:38:14.344Z,98986.66
2022-09-28T14:41:18.073Z,98990.09
2022-09-28T14:44:20.893Z,98975.25
2022-09-28T14:47:44.892Z,98974.44
2022-09-28T14:50:49.926Z,98987.56
2022-09-28T14:54:01.857Z,98979.66
2022-09-28T14:57:16.812Z,98983.41
2022-09-28T15:00:25.986Z,98972.91
2022-09-28T15:03:32.797Z,98974.75
2022-09-28T15:06:46.269Z,98980.94
2022-09-28T15:09:54.421Z,98963.72
2022-09-28T15:13:01.324Z,98966.53
2022-09-28T15:16:09.974Z,98965.66
2022-09-28T15:19:32.516Z,98965.22
2022-09-28T15:22:37.189Z,98966.47
2022-09-28T15:25:39.763Z,98960.44
2022-09-28T15:28:45.028Z,98952.22
2022-09-28T15:31:51.110Z,98961.56
2022-09-28T15:34:58.515Z,98953.25
2022-09-28T15:38:01.037Z,98953.44
2022-09-28T15:41:06.790Z,98952.06
2022-09-28T15:44:12.600Z,98957.56
2022-09-28T15:47:29.640Z,98955.00
2022-09-28T15:50:34.484Z,98962.19
2022-09-28T15:53:43.790Z,98963.03
2022-09-28T15:56:55.336Z,98972.97
2022-09-28T15:59:59.547Z,98977.91
